Time;durP1;ratioP1;P1;durP2;ratioP2;P2;SDS_P1;SDS_P2;PMS_P1;PMS_P2;Temp;Humidity;BMP_temperature;BMP_pressure;BME280_temperature;BME280_humidity;BME280_pressure;Samples;Min_cycle;Max_cycle;Signal;HPM_P1;HPM_P2
2022/01/29 00:01:45;;;;;;;28.48;12.48;;;6.60;99.90;;;;;;2149205;66;20378;-73
2022/01/29 00:04:27;;;;;;;23.48;11.38;;;6.70;99.90;;;;;;2147342;66;20456;-72
2022/01/29 00:07:09;;;;;;;26.52;11.60;;;6.70;99.90;;;;;;2140639;66;20254;-73
2022/01/29 00:09:52;;;;;;;25.52;10.25;;;6.80;99.90;;;;;;2130661;67;20229;-72
2022/01/29 00:12:33;;;;;;;24.90;11.77;;;6.80;99.90;;;;;;2143664;66;20678;-73
2022/01/29 00:15:15;;;;;;;18.52;9.80;;;6.80;99.90;;;;;;2149538;66;20256;-73
2022/01/29 00:18:02;;;;;;;26.10;11.38;;;6.90;99.90;;;;;;2134641;67;20331;-72
2022/01/29 00:20:47;;;;;;;24.08;11.70;;;6.90;99.90;;;;;;2130636;67;20412;-71
2022/01/29 00:23:30;;;;;;;17.30;10.13;;;6.90;99.90;;;;;;2125809;67;20707;-72
2022/01/29 00:26:16;;;;;;;18.17;10.52;;;7.00;99.90;;;;;;2122735;67;20215;-71
2022/01/29 00:28:58;;;;;;;17.40;11.43;;;7.00;99.90;;;;;;2132812;67;20175;-72
2022/01/29 00:31:40;;;;;;;22.38;11.52;;;7.00;99.90;;;;;;2132884;67;20283;-71
2022/01/29 00:34:22;;;;;;;20.52;11.43;;;6.90;99.90;;;;;;2140072;66;20261;-71
2022/01/29 00:37:04;;;;;;;25.48;12.07;;;7.00;99.90;;;;;;2139919;66;20171;-72
2022/01/29 00:39:48;;;;;;;22.75;12.20;;;7.00;99.90;;;;;;2137820;67;20294;-72
2022/01/29 00:42:33;;;;;;;25.50;12.77;;;7.00;99.90;;;;;;2139851;67;20845;-72
2022/01/29 00:45:18;;;;;;;20.67;11.30;;;6.90;99.90;;;;;;2139545;66;20187;-72
2022/01/29 00:48:03;;;;;;;21.52;13.30;;;6.90;99.90;;;;;;2140328;66;20248;-74
2022/01/29 00:50:45;;;;;;;29.45;13.55;;;7.00;99.90;;;;;;2128027;67;20417;-71
2022/01/29 00:53:29;;;;;;;19.55;12.23;;;7.00;99.90;;;;;;2132795;67;20180;-73
2022/01/29 00:56:13;;;;;;;21.50;13.52;;;7.00;99.90;;;;;;2132768;67;20754;-73
2022/01/29 00:58:55;;;;;;;20.25;12.68;;;7.00;99.90;;;;;;2127389;67;20643;-71
2022/01/29 01:01:38;;;;;;;19.83;10.40;;;7.10;99.90;;;;;;2131710;67;20207;-72
2022/01/29 01:04:21;;;;;;;19.38;11.43;;;7.10;99.90;;;;;;2126146;67;20317;-72
2022/01/29 01:07:03;;;;;;;21.75;12.07;;;7.10;99.90;;;;;;2119190;67;20201;-71
2022/01/29 01:09:46;;;;;;;25.75;14.55;;;7.10;99.90;;;;;;2125815;67;20736;-71
2022/01/29 01:12:28;;;;;;;23.45;13.27;;;7.20;99.90;;;;;;2140690;66;20225;-71
2022/01/29 01:15:11;;;;;;;24.58;13.32;;;7.20;99.90;;;;;;2139490;66;20271;-72
2022/01/29 01:17:54;;;;;;;21.40;12.43;;;7.20;99.90;;;;;;2140365;66;20199;-71
2022/01/29 01:20:56;;;;;;;19.38;11.13;;;7.20;99.90;;;;;;2139180;66;20328;-72
2022/01/29 01:23:41;;;;;;;23.73;14.02;;;7.20;99.90;;;;;;2147101;66;20290;-72
2022/01/29 01:26:22;;;;;;;25.60;12.55;;;7.30;99.90;;;;;;2147187;66;20182;-72
2022/01/29 01:29:04;;;;;;;25.40;12.93;;;7.30;99.90;;;;;;2152720;66;20217;-73
2022/01/29 01:31:47;;;;;;;27.80;13.45;;;7.30;99.90;;;;;;2155337;66;20323;-72
2022/01/29 01:34:37;;;;;;;23.00;12.27;;;7.30;99.90;;;;;;2146440;66;20201;-72
2022/01/29 01:37:36;;;;;;;27.15;14.32;;;7.30;99.90;;;;;;2130899;67;20269;-72
2022/01/29 01:40:19;;;;;;;25.45;13.07;;;7.30;99.90;;;;;;2112069;67;20232;-72
2022/01/29 01:43:01;;;;;;;22.33;13.25;;;7.30;99.90;;;;;;2121544;67;20239;-72
2022/01/29 01:45:43;;;;;;;31.33;15.30;;;7.40;99.90;;;;;;2117239;67;20193;-72
2022/01/29 01:48:24;;;;;;;32.47;14.27;;;7.50;99.90;;;;;;2110892;67;20232;-72
2022/01/29 01:51:06;;;;;;;24.10;14.45;;;7.40;99.90;;;;;;2104365;67;20182;-73
2022/01/29 01:53:48;;;;;;;31.23;15.25;;;7.40;99.90;;;;;;2113659;67;20401;-72
2022/01/29 01:56:30;;;;;;;24.95;14.30;;;7.40;99.90;;;;;;2119057;67;20297;-72
2022/01/29 01:59:12;;;;;;;27.27;14.98;;;7.40;99.90;;;;;;2108173;67;20300;-71
2022/01/29 02:01:53;;;;;;;27.08;14.50;;;7.60;99.90;;;;;;2123069;67;20359;-74
2022/01/29 02:04:38;;;;;;;23.83;14.77;;;7.40;99.90;;;;;;2119190;67;20654;-72
2022/01/29 02:07:21;;;;;;;28.90;13.38;;;7.50;99.90;;;;;;2118818;67;20253;-72
2022/01/29 02:10:08;;;;;;;32.38;15.23;;;7.50;99.90;;;;;;2124708;67;20248;-72
2022/01/29 02:12:53;;;;;;;26.00;14.25;;;7.50;99.90;;;;;;2133633;67;20199;-73
2022/01/29 02:15:35;;;;;;;23.77;13.23;;;7.50;99.90;;;;;;2124253;67;20236;-71
2022/01/29 02:18:18;;;;;;;33.55;13.77;;;7.50;99.90;;;;;;2124880;67;20176;-72
2022/01/29 02:21:03;;;;;;;28.00;13.88;;;7.50;99.90;;;;;;2123653;67;20372;-71
2022/01/29 02:23:49;;;;;;;30.08;14.30;;;7.60;99.90;;;;;;2136706;67;20190;-72
2022/01/29 02:26:34;;;;;;;25.63;14.55;;;7.60;99.90;;;;;;2139223;66;20636;-71
2022/01/29 02:29:16;;;;;;;21.67;11.23;;;7.60;99.90;;;;;;2130817;67;20348;-72
2022/01/29 02:32:00;;;;;;;27.20;12.98;;;7.70;99.90;;;;;;2133121;66;20207;-72
2022/01/29 02:34:45;;;;;;;30.15;13.32;;;7.70;99.90;;;;;;2146261;66;20245;-72
2022/01/29 02:37:28;;;;;;;26.67;11.93;;;7.80;99.90;;;;;;2142656;66;20239;-71
2022/01/29 02:40:13;;;;;;;;;;;7.70;99.90;;;;;;2139745;66;20175;-72
2022/01/29 02:42:56;;;;;;;20.92;9.82;;;7.70;99.90;;;;;;2144375;66;20117;-73
2022/01/29 02:45:41;;;;;;;21.50;12.65;;;7.70;99.90;;;;;;2138715;66;20395;-73
2022/01/29 02:48:23;;;;;;;24.20;12.55;;;7.70;99.90;;;;;;2131075;67;20608;-72
2022/01/29 02:51:05;;;;;;;22.65;11.70;;;7.80;99.90;;;;;;2144773;66;20333;-71
2022/01/29 02:53:48;;;;;;;23.45;11.35;;;7.70;99.90;;;;;;2139756;66;20175;-74
2022/01/29 02:56:33;;;;;;;24.25;11.68;;;7.80;99.90;;;;;;2131670;67;20316;-72
2022/01/29 02:59:16;;;;;;;19.92;11.10;;;7.80;99.90;;;;;;2131743;67;20238;-72
2022/01/29 03:01:58;;;;;;;19.95;10.98;;;8.20;99.90;;;;;;2136221;66;20312;-73
2022/01/29 03:04:41;;;;;;;20.90;10.93;;;7.80;99.90;;;;;;2153188;66;20256;-72
2022/01/29 03:07:27;;;;;;;;;;;7.90;99.90;;;;;;2146518;66;20230;-73
2022/01/29 03:10:11;;;;;;;22.35;12.32;;;7.90;99.90;;;;;;2153424;66;20049;-73
2022/01/29 03:12:54;;;;;;;24.50;12.00;;;7.90;99.90;;;;;;2133478;67;20268;-72
2022/01/29 03:15:41;;;;;;;20.80;11.00;;;7.90;99.90;;;;;;2124323;67;20725;-73
2022/01/29 03:18:29;;;;;;;21.33;11.35;;;8.00;99.90;;;;;;2119973;67;20793;-71
2022/01/29 03:21:16;;;;;;;24.25;11.48;;;8.00;99.90;;;;;;2110661;67;20689;-71
2022/01/29 03:23:58;;;;;;;26.35;12.98;;;8.00;99.90;;;;;;2116308;67;20303;-72
2022/01/29 03:26:42;;;;;;;22.77;13.02;;;8.00;99.90;;;;;;2124637;67;20313;-72
2022/01/29 03:29:27;;;;;;;29.10;13.02;;;8.00;99.90;;;;;;2157013;66;20464;-72
2022/01/29 03:32:09;;;;;;;26.23;10.80;;;8.00;99.90;;;;;;2148065;66;20178;-72
2022/01/29 03:34:51;;;;;;;26.95;11.80;;;8.00;99.90;;;;;;2144656;66;20364;-73
2022/01/29 03:37:33;;;;;;;25.80;12.65;;;8.00;99.90;;;;;;2138959;66;20348;-72
2022/01/29 03:40:17;;;;;;;24.38;12.77;;;8.00;99.90;;;;;;2138824;67;20252;-71
2022/01/29 03:43:08;;;;;;;;;;;8.10;99.90;;;;;;2145922;66;20216;-73
2022/01/29 03:46:04;;;;;;;22.75;12.43;;;8.10;99.90;;;;;;2149754;66;20044;-73
2022/01/29 03:48:55;;;;;;;22.83;12.68;;;8.10;99.90;;;;;;2150555;66;20174;-73
2022/01/29 03:51:37;;;;;;;22.05;11.55;;;8.10;99.90;;;;;;2147293;66;20271;-71
2022/01/29 03:54:20;;;;;;;20.27;10.85;;;8.10;99.90;;;;;;2124181;67;20192;-73
2022/01/29 03:57:02;;;;;;;19.88;11.75;;;8.10;99.90;;;;;;2116901;67;20257;-74
2022/01/29 03:59:44;;;;;;;22.25;12.63;;;8.10;99.90;;;;;;2116883;67;20397;-72
2022/01/29 04:02:26;;;;;;;23.35;10.93;;;8.10;99.90;;;;;;2104061;67;20371;-71
2022/01/29 04:05:11;;;;;;;21.90;11.00;;;8.10;99.90;;;;;;2110359;67;20211;-73
2022/01/29 04:07:57;;;;;;;21.10;11.57;;;8.10;99.90;;;;;;2114895;67;20596;-73
2022/01/29 04:10:42;;;;;;;25.48;12.63;;;8.20;99.90;;;;;;2122471;67;20176;-72
2022/01/29 04:13:26;;;;;;;26.38;13.10;;;8.40;99.90;;;;;;2127734;67;20258;-71
2022/01/29 04:16:09;;;;;;;22.63;11.85;;;8.30;99.90;;;;;;2112268;67;20550;-72
2022/01/29 04:18:55;;;;;;;;;;;8.20;99.90;;;;;;2111949;67;20363;-72
2022/01/29 04:21:41;;;;;;;24.05;11.55;;;8.20;99.90;;;;;;2104094;68;20168;-72
2022/01/29 04:24:22;;;;;;;22.75;11.55;;;8.20;99.90;;;;;;2111140;67;20740;-72
2022/01/29 04:27:15;;;;;;;24.15;11.35;;;8.20;99.90;;;;;;2111929;67;20318;-72
2022/01/29 04:30:00;;;;;;;21.35;12.82;;;8.20;99.90;;;;;;2125202;67;20326;-72
2022/01/29 04:35:30;;;;;;;23.67;12.95;;;8.30;99.90;;;;;;2119803;67;20164;-72
2022/01/29 04:38:12;;;;;;;25.55;13.30;;;8.20;99.90;;;;;;2117373;67;20338;-72
2022/01/29 04:40:54;;;;;;;21.95;13.27;;;8.30;99.90;;;;;;2124170;67;20240;-73
2022/01/29 04:43:37;;;;;;;23.30;12.35;;;8.30;99.90;;;;;;2117352;67;20450;-72
2022/01/29 04:46:18;;;;;;;21.98;11.57;;;8.30;99.90;;;;;;2125963;67;20184;-72
2022/01/29 04:49:00;;;;;;;18.65;12.57;;;8.30;99.90;;;;;;2144343;66;20415;-72
2022/01/29 04:51:42;;;;;;;22.17;12.43;;;8.30;99.90;;;;;;2146818;66;20206;-73
2022/01/29 04:54:24;;;;;;;20.40;11.95;;;8.30;99.90;;;;;;2140072;66;20695;-72
2022/01/29 04:57:06;;;;;;;21.45;11.85;;;8.30;99.90;;;;;;2147725;66;20261;-70
2022/01/29 04:59:48;;;;;;;21.70;13.35;;;8.30;99.90;;;;;;2162539;65;20341;-72
2022/01/29 05:02:29;;;;;;;21.13;12.85;;;8.30;99.90;;;;;;2154018;66;20287;-73
2022/01/29 05:05:20;;;;;;;22.38;11.30;;;8.30;99.90;;;;;;2161173;66;20567;-72
2022/01/29 05:07:57;;;;;;;20.85;13.02;;;8.40;99.90;;;;;;2146257;66;20305;-74
2022/01/29 05:10:35;;;;;;;21.00;12.18;;;8.40;99.90;;;;;;2139277;66;20207;-73
2022/01/29 05:13:36;;;;;;;20.85;12.15;;;8.40;99.90;;;;;;2153893;66;20290;-73
2022/01/29 05:17:05;;;;;;;21.08;11.52;;;8.40;99.90;;;;;;2125292;67;20797;-73
2022/01/29 05:28:31;;;;;;;21.73;12.55;;;8.50;99.90;;;;;;2156261;66;20197;-71
2022/01/29 05:31:11;;;;;;;21.15;13.02;;;8.40;99.90;;;;;;2170103;65;20260;-72
2022/01/29 05:33:50;;;;;;;18.90;11.82;;;8.40;99.90;;;;;;2197696;64;20256;-71
2022/01/29 05:36:26;;;;;;;20.33;12.32;;;8.50;99.90;;;;;;2201559;64;20189;-72
2022/01/29 05:39:17;;;;;;;18.95;13.43;;;8.50;99.90;;;;;;2220260;64;20220;-71
2022/01/29 05:41:53;;;;;;;17.88;11.63;;;8.50;99.90;;;;;;2244211;63;20173;-73
2022/01/29 05:44:32;;;;;;;18.17;11.50;;;8.40;99.90;;;;;;2244906;63;20387;-73
2022/01/29 05:47:13;;;;;;;26.42;12.50;;;8.80;99.90;;;;;;2244702;63;20183;-71
2022/01/29 05:49:52;;;;;;;19.20;12.93;;;8.50;99.90;;;;;;2245206;63;20185;-72
2022/01/29 05:52:29;;;;;;;24.33;13.43;;;8.50;99.90;;;;;;2245052;63;20230;-73
2022/01/29 05:55:25;;;;;;;22.58;12.20;;;8.50;99.90;;;;;;2228158;64;20323;-71
2022/01/29 05:58:03;;;;;;;20.35;12.10;;;8.50;99.90;;;;;;2234975;63;20323;-72
2022/01/29 06:00:53;;;;;;;18.85;12.05;;;8.50;99.90;;;;;;2212308;64;20188;-71
2022/01/29 06:03:35;;;;;;;21.23;13.07;;;8.60;99.90;;;;;;2195811;65;20173;-72
2022/01/29 06:06:17;;;;;;;21.33;11.57;;;8.60;99.90;;;;;;2197631;65;20331;-72
2022/01/29 06:09:04;;;;;;;21.50;12.27;;;8.60;99.90;;;;;;2190820;65;20335;-72
2022/01/29 06:11:46;;;;;;;22.52;13.18;;;8.60;99.90;;;;;;2176224;65;20340;-73
2022/01/29 06:14:35;;;;;;;17.83;11.07;;;8.70;99.90;;;;;;2189763;65;20203;-74
2022/01/29 06:17:27;;;;;;;23.40;12.90;;;8.60;99.90;;;;;;2183347;65;20449;-72
2022/01/29 06:20:11;;;;;;;15.75;11.00;;;8.70;99.90;;;;;;2182709;65;20194;-72
2022/01/29 06:22:55;;;;;;;17.20;10.25;;;8.60;99.90;;;;;;2183210;65;20248;-74
2022/01/29 06:25:39;;;;;;;22.23;11.63;;;8.60;99.90;;;;;;2186556;65;20261;-73
2022/01/29 06:28:21;;;;;;;20.80;11.60;;;8.60;99.90;;;;;;2182871;65;20297;-73
2022/01/29 06:31:03;;;;;;;18.30;11.90;;;8.70;99.90;;;;;;2175285;65;20341;-72
2022/01/29 06:33:45;;;;;;;19.40;10.80;;;8.70;99.90;;;;;;2183264;65;20319;-72
2022/01/29 06:36:27;;;;;;;20.67;11.65;;;8.70;99.90;;;;;;2183009;65;20255;-73
2022/01/29 06:39:10;;;;;;;15.77;10.07;;;8.70;99.90;;;;;;2183639;65;20179;-71
2022/01/29 06:41:54;;;;;;;22.58;10.30;;;8.70;99.90;;;;;;2183215;65;20323;-71
2022/01/29 06:44:42;;;;;;;20.37;11.77;;;8.70;99.90;;;;;;2161475;66;20336;-72
2022/01/29 06:47:25;;;;;;;15.00;9.65;;;8.70;99.90;;;;;;2153924;66;20525;-72
2022/01/29 06:50:11;;;;;;;15.43;10.23;;;8.70;99.90;;;;;;2153857;66;20371;-70
2022/01/29 06:52:52;;;;;;;18.00;11.55;;;8.70;99.90;;;;;;2146087;66;20363;-74
2022/01/29 06:55:35;;;;;;;18.67;12.27;;;8.80;99.90;;;;;;2131759;67;20281;-74
2022/01/29 06:58:20;;;;;;;21.25;10.95;;;8.70;99.90;;;;;;2131399;67;20650;-72
2022/01/29 07:01:02;;;;;;;20.15;11.43;;;8.70;99.90;;;;;;2124064;67;20334;-73
2022/01/29 07:03:46;;;;;;;21.87;10.87;;;8.70;99.90;;;;;;2114029;67;20201;-72
2022/01/29 07:06:28;;;;;;;13.77;9.05;;;8.70;99.90;;;;;;2102755;67;20516;-72
2022/01/29 07:09:10;;;;;;;21.33;10.50;;;8.70;99.90;;;;;;2089408;68;20195;-71
2022/01/29 07:11:56;;;;;;;20.42;12.32;;;8.70;99.90;;;;;;2084962;68;20774;-71
2022/01/29 07:14:41;;;;;;;19.05;9.98;;;8.70;99.90;;;;;;2090849;67;20183;-71
2022/01/29 07:17:24;;;;;;;18.02;10.52;;;9.30;99.90;;;;;;2111506;67;20273;-73
2022/01/29 07:20:09;;;;;;;19.15;9.60;;;8.70;99.90;;;;;;2126065;67;20705;-72
2022/01/29 07:22:50;;;;;;;19.65;10.88;;;8.60;99.90;;;;;;2137753;66;20562;-72
2022/01/29 07:25:32;;;;;;;19.17;10.63;;;8.70;99.90;;;;;;2134347;66;20648;-72
2022/01/29 07:28:17;;;;;;;16.13;10.00;;;8.70;99.90;;;;;;2133007;67;20297;-70
2022/01/29 07:31:03;;;;;;;19.27;10.35;;;8.70;99.90;;;;;;2125925;67;20364;-72
2022/01/29 07:33:45;;;;;;;20.50;11.30;;;8.80;99.90;;;;;;2125710;67;20239;-73
2022/01/29 07:36:27;;;;;;;17.63;9.65;;;8.70;99.90;;;;;;2118955;67;20596;-72
2022/01/29 07:39:09;;;;;;;14.80;9.10;;;8.80;99.90;;;;;;2112519;67;20201;-72
2022/01/29 07:41:52;;;;;;;18.75;10.20;;;8.80;99.90;;;;;;2112063;67;21285;-72
2022/01/29 07:44:38;;;;;;;14.88;10.07;;;8.70;99.90;;;;;;2118887;67;20419;-73
2022/01/29 07:47:22;;;;;;;19.85;10.32;;;8.80;99.90;;;;;;2117501;67;20181;-73
2022/01/29 07:50:07;;;;;;;12.95;9.73;;;8.70;99.90;;;;;;2104744;67;20221;-72
2022/01/29 07:52:49;;;;;;;19.00;10.57;;;8.70;99.90;;;;;;2104416;67;21266;-73
2022/01/29 07:55:31;;;;;;;20.35;10.50;;;8.70;99.90;;;;;;2104408;67;20166;-74
2022/01/29 07:58:13;;;;;;;16.38;8.32;;;8.70;99.90;;;;;;2109911;67;20350;-71
2022/01/29 08:00:58;;;;;;;15.80;9.57;;;8.70;99.90;;;;;;2104537;67;20174;-75
2022/01/29 08:03:40;;;;;;;17.75;10.45;;;8.70;99.90;;;;;;2125700;67;20814;-73
2022/01/29 08:06:23;;;;;;;15.75;8.68;;;8.70;99.90;;;;;;2140291;66;20704;-73
2022/01/29 08:09:08;;;;;;;14.65;8.68;;;8.70;99.90;;;;;;2147347;66;20286;-74
2022/01/29 08:11:54;;;;;;;18.13;8.98;;;8.70;99.90;;;;;;2137156;66;20167;-72
2022/01/29 08:14:40;;;;;;;14.10;7.68;;;8.80;99.90;;;;;;2141805;66;20207;-73
2022/01/29 08:17:23;;;;;;;12.95;8.88;;;8.90;99.90;;;;;;2154443;66;20429;-72
2022/01/29 08:20:09;;;;;;;;;;;8.80;99.90;;;;;;2153517;66;20313;-73
2022/01/29 08:22:50;;;;;;;17.95;9.07;;;8.80;99.90;;;;;;2146688;66;20088;-71
2022/01/29 08:25:32;;;;;;;14.38;7.20;;;8.90;99.90;;;;;;2136397;67;20179;-71
2022/01/29 08:28:14;;;;;;;16.30;8.55;;;8.90;99.90;;;;;;2139660;66;20764;-72
2022/01/29 08:30:56;;;;;;;16.65;8.55;;;8.90;99.90;;;;;;2133477;67;20216;-73
2022/01/29 08:33:45;;;;;;;11.80;6.95;;;9.00;99.90;;;;;;2154689;66;20240;-72
2022/01/29 08:36:29;;;;;;;11.38;6.88;;;9.00;99.90;;;;;;2151841;66;20327;-71
2022/01/29 08:39:12;;;;;;;13.65;7.60;;;9.00;99.90;;;;;;2149832;66;20887;-72
2022/01/29 08:41:56;;;;;;;;;;;9.00;99.90;;;;;;2144987;66;20320;-73
2022/01/29 08:44:39;;;;;;;15.55;6.68;;;9.10;99.90;;;;;;2145829;66;20154;-71
2022/01/29 08:47:23;;;;;;;11.02;6.35;;;9.10;99.90;;;;;;2147441;66;20210;-72
2022/01/29 08:50:07;;;;;;;9.45;5.45;;;9.20;99.90;;;;;;2147561;66;20259;-73
2022/01/29 08:52:49;;;;;;;10.85;5.32;;;9.20;99.90;;;;;;2135268;67;20756;-72
2022/01/29 08:55:36;;;;;;;11.68;6.22;;;9.00;99.90;;;;;;2142258;66;20290;-72
2022/01/29 08:58:18;;;;;;;12.05;5.57;;;9.30;99.90;;;;;;2149085;66;20382;-70
2022/01/29 09:01:03;;;;;;;12.02;5.53;;;9.30;99.90;;;;;;2138839;66;20204;-73
2022/01/29 09:03:47;;;;;;;9.77;4.97;;;9.40;99.90;;;;;;2134229;67;20296;-72
2022/01/29 09:06:30;;;;;;;10.38;4.20;;;9.50;99.90;;;;;;2126079;67;20313;-72
2022/01/29 09:09:12;;;;;;;9.20;5.85;;;9.50;99.90;;;;;;2113929;67;20232;-73
2022/01/29 09:11:54;;;;;;;8.68;4.75;;;9.50;99.90;;;;;;2135786;66;20167;-72
2022/01/29 09:14:36;;;;;;;7.78;4.97;;;9.60;99.90;;;;;;2137553;67;20865;-70
2022/01/29 09:17:18;;;;;;;7.90;4.47;;;9.60;99.90;;;;;;2138487;67;20175;-73
2022/01/29 09:20:00;;;;;;;7.22;4.68;;;9.60;99.90;;;;;;2132377;67;20200;-72
2022/01/29 09:22:42;;;;;;;8.48;4.18;;;9.50;99.90;;;;;;2146609;66;20183;-72
2022/01/29 09:25:26;;;;;;;7.72;4.35;;;9.50;99.90;;;;;;2139837;66;20230;-72
2022/01/29 09:28:13;;;;;;;10.80;4.55;;;9.50;99.90;;;;;;2154975;66;20161;-72
2022/01/29 09:30:59;;;;;;;8.95;4.30;;;9.50;99.90;;;;;;2152630;66;20245;-73
2022/01/29 09:33:44;;;;;;;7.38;4.38;;;9.60;99.90;;;;;;2153760;66;20502;-72
2022/01/29 09:36:29;;;;;;;6.00;4.13;;;9.60;99.90;;;;;;2160064;66;20172;-72
2022/01/29 09:39:13;;;;;;;8.18;4.22;;;9.60;99.90;;;;;;2157972;66;20919;-71
2022/01/29 09:41:59;;;;;;;10.60;4.22;;;9.70;99.90;;;;;;2168854;65;20238;-72
2022/01/29 09:44:45;;;;;;;7.63;4.18;;;9.70;99.90;;;;;;2163867;66;20181;-72
2022/01/29 09:47:30;;;;;;;5.00;3.33;;;9.70;99.90;;;;;;2159061;66;20234;-72
2022/01/29 09:50:14;;;;;;;7.78;3.80;;;9.70;99.90;;;;;;2157324;66;20294;-73
2022/01/29 09:52:57;;;;;;;11.27;3.97;;;9.80;99.90;;;;;;2140943;66;20326;-73
2022/01/29 09:55:43;;;;;;;7.80;3.92;;;9.80;99.90;;;;;;2147329;66;20779;-71
2022/01/29 09:58:27;;;;;;;8.80;4.00;;;9.80;99.90;;;;;;2137461;66;20329;-73
2022/01/29 10:01:11;;;;;;;9.52;3.40;;;9.80;99.90;;;;;;2133499;67;20218;-73
2022/01/29 10:04:08;;;;;;;8.65;4.25;;;9.90;99.90;;;;;;2125432;67;20258;-72
2022/01/29 10:07:35;;;;;;;7.70;3.28;;;9.90;99.90;;;;;;2117728;67;20380;-73
2022/01/29 10:10:19;;;;;;;5.32;3.15;;;9.90;99.90;;;;;;2128558;67;20364;-73
2022/01/29 10:13:03;;;;;;;4.90;2.97;;;10.00;99.90;;;;;;2132418;67;20211;-72
2022/01/29 10:15:48;;;;;;;11.63;3.70;;;10.00;99.90;;;;;;2132139;67;20598;-73
2022/01/29 10:18:31;;;;;;;6.72;3.15;;;10.00;99.90;;;;;;2139086;66;20166;-72
2022/01/29 10:21:17;;;;;;;10.55;3.42;;;10.00;99.90;;;;;;2153891;66;20196;-72
2022/01/29 10:24:04;;;;;;;6.45;3.20;;;10.00;99.90;;;;;;2152902;66;20248;-73
2022/01/29 10:26:47;;;;;;;11.20;2.92;;;10.10;99.90;;;;;;2149699;66;20237;-71
2022/01/29 10:29:29;;;;;;;7.40;3.13;;;10.00;99.90;;;;;;2143700;66;20186;-72
2022/01/29 10:32:25;;;;;;;4.10;2.03;;;10.00;99.90;;;;;;2136265;67;20203;-73
2022/01/29 10:35:09;;;;;;;9.07;3.15;;;10.10;99.90;;;;;;2128305;67;20199;-72
2022/01/29 10:37:57;;;;;;;8.10;3.28;;;10.10;99.90;;;;;;2136278;66;20256;-73
2022/01/29 10:40:42;;;;;;;6.22;2.97;;;10.20;99.90;;;;;;2131911;67;20199;-73
2022/01/29 10:43:24;;;;;;;7.97;3.97;;;10.20;99.90;;;;;;2119172;67;20422;-71
2022/01/29 10:46:43;;;;;;;4.65;2.33;;;10.20;99.90;;;;;;2118606;67;20258;-72
2022/01/29 10:49:34;;;;;;;6.30;2.25;;;10.20;99.90;;;;;;2124881;67;20585;-73
2022/01/29 10:52:17;;;;;;;7.35;2.42;;;10.20;99.90;;;;;;2111315;67;20261;-71
2022/01/29 10:55:01;;;;;;;4.90;2.53;;;10.20;99.90;;;;;;2125509;67;20208;-73
2022/01/29 10:57:47;;;;;;;5.10;1.88;;;10.20;99.90;;;;;;2125108;67;20223;-72
2022/01/29 11:00:31;;;;;;;;;;;10.20;99.90;;;;;;2136719;66;20256;-72
2022/01/29 11:03:13;;;;;;;3.58;1.80;;;10.20;99.90;;;;;;2131864;66;20126;-73
2022/01/29 11:05:58;;;;;;;7.25;2.67;;;10.20;99.90;;;;;;2119473;67;20344;-73
2022/01/29 11:08:45;;;;;;;8.50;2.70;;;10.30;99.90;;;;;;2120370;67;20438;-72
2022/01/29 11:11:31;;;;;;;4.03;1.95;;;10.30;99.90;;;;;;2118607;67;20231;-71
2022/01/29 11:14:20;;;;;;;7.80;2.40;;;10.30;99.90;;;;;;2103880;67;20443;-72
2022/01/29 11:17:04;;;;;;;7.00;2.33;;;10.40;99.90;;;;;;2095973;68;20175;-72
2022/01/29 11:19:49;;;;;;;8.50;3.03;;;10.30;99.90;;;;;;2104118;67;20655;-73
2022/01/29 11:22:58;;;;;;;8.35;2.67;;;10.40;99.90;;;;;;2120186;67;20251;-73
2022/01/29 11:25:40;;;;;;;;;;;10.40;99.90;;;;;;2113262;67;20341;-75
2022/01/29 11:28:26;;;;;;;5.22;1.95;;;10.40;99.90;;;;;;2120811;67;20219;-71
2022/01/29 11:31:11;;;;;;;6.40;2.40;;;10.40;99.90;;;;;;2114422;67;20218;-72
2022/01/29 11:33:58;;;;;;;9.73;2.83;;;10.40;99.90;;;;;;2098654;68;20289;-73
2022/01/29 11:36:48;;;;;;;9.77;3.05;;;10.50;99.90;;;;;;2113350;67;20210;-74
2022/01/29 11:39:30;;;;;;;6.25;2.10;;;10.50;99.90;;;;;;2120136;67;20180;-73
2022/01/29 11:42:11;;;;;;;6.53;2.63;;;10.50;99.90;;;;;;2119613;67;20313;-76
2022/01/29 11:44:52;;;;;;;5.88;1.80;;;10.50;99.90;;;;;;2118405;67;20261;-73
2022/01/29 11:47:48;;;;;;;7.15;2.00;;;10.50;99.90;;;;;;2110468;67;20403;-72
2022/01/29 11:50:29;;;;;;;4.10;1.98;;;10.50;99.90;;;;;;2125210;67;20380;-72
2022/01/29 11:53:12;;;;;;;7.97;2.13;;;10.80;99.90;;;;;;2117498;67;20266;-73
2022/01/29 11:55:56;;;;;;;6.90;2.10;;;10.60;99.90;;;;;;2122257;67;20330;-73
2022/01/29 11:58:41;;;;;;;9.05;2.47;;;10.70;99.90;;;;;;2131532;67;20174;-73
2022/01/29 12:01:33;;;;;;;4.72;1.83;;;10.70;99.90;;;;;;2137341;67;20471;-72
2022/01/29 12:04:19;;;;;;;5.18;1.60;;;10.80;99.90;;;;;;2137616;66;20323;-72
2022/01/29 12:07:06;;;;;;;8.45;1.85;;;10.90;99.90;;;;;;2122908;67;20778;-73
2022/01/29 12:09:52;;;;;;;8.43;2.13;;;10.90;99.90;;;;;;2120623;67;20652;-72
2022/01/29 12:12:36;;;;;;;6.35;2.17;;;10.90;99.90;;;;;;2110395;67;20186;-72
2022/01/29 12:15:35;;;;;;;8.27;2.42;;;11.00;99.90;;;;;;2118193;67;20292;-73
2022/01/29 12:18:32;;;;;;;10.25;1.92;;;11.00;99.90;;;;;;2121023;67;20360;-72
2022/01/29 12:21:25;;;;;;;7.15;1.98;;;11.10;99.90;;;;;;2121310;67;20588;-73
2022/01/29 12:24:10;;;;;;;5.63;1.73;;;11.20;99.90;;;;;;2125720;67;20243;-73
2022/01/29 12:26:59;;;;;;;6.15;2.00;;;11.20;99.90;;;;;;2118579;67;20725;-73
2022/01/29 12:29:44;;;;;;;5.68;2.10;;;11.20;99.90;;;;;;2122551;67;20306;-74
2022/01/29 12:32:26;;;;;;;6.63;2.03;;;11.20;99.90;;;;;;2129031;67;20198;-74
2022/01/29 12:35:09;;;;;;;7.53;1.50;;;11.20;99.90;;;;;;2121942;67;20464;-73
2022/01/29 12:37:54;;;;;;;5.82;1.90;;;11.30;99.90;;;;;;2125539;67;20221;-72
2022/01/29 12:40:41;;;;;;;10.20;4.20;;;11.30;99.90;;;;;;2118343;67;20233;-71
2022/01/29 12:43:53;;;;;;;5.00;2.05;;;11.50;99.90;;;;;;2121597;67;20239;-72
2022/01/29 12:46:40;;;;;;;5.78;1.70;;;11.00;99.90;;;;;;2133093;67;20256;-73
2022/01/29 12:49:22;;;;;;;6.80;2.10;;;11.20;99.90;;;;;;2132263;67;20392;-72
2022/01/29 12:52:06;;;;;;;5.72;2.22;;;11.30;99.90;;;;;;2126121;67;20219;-71
2022/01/29 12:54:57;;;;;;;3.95;1.67;;;11.20;99.90;;;;;;2132552;67;20256;-72
2022/01/29 12:57:49;;;;;;;8.57;2.55;;;11.30;99.90;;;;;;2132289;67;20196;-72
2022/01/29 13:00:38;;;;;;;9.07;2.42;;;11.40;99.90;;;;;;2144961;66;20296;-73
2022/01/29 13:03:27;;;;;;;4.60;1.80;;;11.50;99.90;;;;;;2139778;67;20342;-72
2022/01/29 13:06:12;;;;;;;9.77;2.17;;;11.30;99.90;;;;;;2132692;67;20737;-72
2022/01/29 13:09:10;;;;;;;6.17;2.00;;;11.30;99.90;;;;;;2132535;67;20271;-72
2022/01/29 13:12:02;;;;;;;11.45;2.67;;;11.20;99.90;;;;;;2131365;67;20858;-72
2022/01/29 13:14:48;;;;;;;6.82;1.67;;;11.30;99.90;;;;;;2134982;66;20383;-74
2022/01/29 13:17:31;;;;;;;6.10;2.08;;;11.40;99.90;;;;;;2139750;66;20198;-72
2022/01/29 13:20:14;;;;;;;8.32;2.25;;;11.40;99.90;;;;;;2142502;66;20688;-72
2022/01/29 13:22:58;;;;;;;11.50;2.63;;;11.40;99.90;;;;;;2136419;67;20749;-71
2022/01/29 13:25:43;;;;;;;5.55;1.77;;;11.50;99.90;;;;;;2150131;66;20434;-73
2022/01/29 13:28:38;;;;;;;4.00;1.60;;;11.60;99.90;;;;;;2146741;66;20185;-71
2022/01/29 13:31:20;;;;;;;4.63;1.30;;;11.80;99.90;;;;;;2134497;66;20194;-74
2022/01/29 13:34:04;;;;;;;7.53;2.08;;;11.90;99.90;;;;;;2120123;67;20387;-72
2022/01/29 13:36:47;;;;;;;7.45;1.70;;;11.90;99.90;;;;;;2132519;67;20842;-73
2022/01/29 13:39:48;;;;;;;5.15;1.70;;;12.10;99.90;;;;;;2132282;67;20246;-72
2022/01/29 13:42:36;;;;;;;6.68;1.80;;;12.10;99.90;;;;;;2149282;66;20257;-74
2022/01/29 13:45:22;;;;;;;7.35;1.60;;;12.20;99.90;;;;;;2154152;66;20170;-73
2022/01/29 13:48:13;;;;;;;7.70;2.30;;;12.10;99.90;;;;;;2147171;66;20775;-73
2022/01/29 13:50:52;;;;;;;;;;;12.20;99.90;;;;;;2148412;66;20760;-74
2022/01/29 13:53:47;;;;;;;4.68;1.50;;;12.20;99.90;;;;;;2162550;66;20061;-71
2022/01/29 13:56:24;;;;;;;5.85;1.75;;;12.00;99.90;;;;;;2153707;66;20821;-74
2022/01/29 13:59:02;;;;;;;4.20;1.40;;;12.10;99.90;;;;;;2155580;66;20296;-72
2022/01/29 14:01:57;;;;;;;4.38;1.95;;;11.90;99.90;;;;;;2167273;66;20188;-73
2022/01/29 14:04:40;;;;;;;5.18;1.77;;;11.80;99.90;;;;;;2161566;66;20176;-73
2022/01/29 14:07:22;;;;;;;8.73;2.10;;;11.80;99.90;;;;;;2156023;66;20334;-73
2022/01/29 14:10:10;;;;;;;7.93;1.85;;;11.70;99.90;;;;;;2164806;66;20248;-72
2022/01/29 14:13:05;;;;;;;8.60;2.40;;;11.80;99.90;;;;;;2183815;65;20252;-72
2022/01/29 14:15:47;;;;;;;5.95;1.33;;;11.70;99.90;;;;;;2185503;65;20367;-72
2022/01/29 14:18:36;;;;;;;10.07;2.05;;;11.70;99.90;;;;;;2191369;65;20346;-73
2022/01/29 14:21:27;;;;;;;3.92;1.77;;;11.70;99.90;;;;;;2198549;65;20281;-73
2022/01/29 14:24:05;;;;;;;7.90;1.90;;;11.70;99.90;;;;;;2198848;65;20201;-75
2022/01/29 14:27:00;;;;;;;10.98;2.15;;;11.70;99.90;;;;;;2220166;64;20196;-74
2022/01/29 14:29:38;;;;;;;5.75;1.75;;;11.70;99.90;;;;;;2191191;65;20292;-73